sensor_id;sensor_type;location;lat;lon;timestamp;temperature;humidity
8324;DHT22;4199;50.802;6.772;2023-12-07T00:01:32;2.00;51.30
8324;DHT22;4199;50.802;6.772;2023-12-07T00:04:01;2.00;51.30
8324;DHT22;4199;50.802;6.772;2023-12-07T00:06:28;2.00;51.40
8324;DHT22;4199;50.802;6.772;2023-12-07T00:08:54;2.00;51.30
8324;DHT22;4199;50.802;6.772;2023-12-07T00:11:22;2.00;51.30
8324;DHT22;4199;50.802;6.772;2023-12-07T00:13:51;1.90;51.60
8324;DHT22;4199;50.802;6.772;2023-12-07T00:16:37;1.90;51.80
8324;DHT22;4199;50.802;6.772;2023-12-07T00:19:04;1.80;51.90
8324;DHT22;4199;50.802;6.772;2023-12-07T00:21:31;1.90;52.00
8324;DHT22;4199;50.802;6.772;2023-12-07T00:23:58;1.80;52.10
8324;DHT22;4199;50.802;6.772;2023-12-07T00:26:24;2.10;52.30
8324;DHT22;4199;50.802;6.772;2023-12-07T00:28:51;1.80;52.00
8324;DHT22;4199;50.802;6.772;2023-12-07T00:31:18;1.80;52.00
8324;DHT22;4199;50.802;6.772;2023-12-07T00:33:46;2.10;52.30
8324;DHT22;4199;50.802;6.772;2023-12-07T00:36:13;1.80;52.00
8324;DHT22;4199;50.802;6.772;2023-12-07T00:38:58;1.80;52.20
8324;DHT22;4199;50.802;6.772;2023-12-07T00:41:25;2.10;52.50
8324;DHT22;4199;50.802;6.772;2023-12-07T00:43:52;2.00;52.30
8324;DHT22;4199;50.802;6.772;2023-12-07T00:46:18;1.60;51.90
8324;DHT22;4199;50.802;6.772;2023-12-07T00:48:45;1.50;51.90
8324;DHT22;4199;50.802;6.772;2023-12-07T00:51:12;1.90;52.40
8324;DHT22;4199;50.802;6.772;2023-12-07T00:53:39;1.40;51.90
8324;DHT22;4199;50.802;6.772;2023-12-07T00:56:06;1.40;52.00
8324;DHT22;4199;50.802;6.772;2023-12-07T00:58:33;1.40;51.90
8324;DHT22;4199;50.802;6.772;2023-12-07T01:01:00;1.00;51.60
8324;DHT22;4199;50.802;6.772;2023-12-07T01:03:26;1.60;52.20
8324;DHT22;4199;50.802;6.772;2023-12-07T01:05:53;1.30;52.00
8324;DHT22;4199;50.802;6.772;2023-12-07T01:08:20;1.30;51.90
8324;DHT22;4199;50.802;6.772;2023-12-07T01:10:47;1.60;52.30
8324;DHT22;4199;50.802;6.772;2023-12-07T01:13:19;1.20;53.30
8324;DHT22;4199;50.802;6.772;2023-12-07T01:15:46;1.30;52.40
8324;DHT22;4199;50.802;6.772;2023-12-07T01:18:13;1.40;52.70
8324;DHT22;4199;50.802;6.772;2023-12-07T01:20:39;1.60;53.20
8324;DHT22;4199;50.802;6.772;2023-12-07T01:23:06;1.80;53.50
8324;DHT22;4199;50.802;6.772;2023-12-07T01:25:34;1.70;53.60
8324;DHT22;4199;50.802;6.772;2023-12-07T01:28:00;1.40;53.50
8324;DHT22;4199;50.802;6.772;2023-12-07T01:30:27;1.50;53.40
8324;DHT22;4199;50.802;6.772;2023-12-07T01:33:06;2.00;53.20
8324;DHT22;4199;50.802;6.772;2023-12-07T01:35:32;1.60;52.80
8324;DHT22;4199;50.802;6.772;2023-12-07T01:37:59;1.50;53.00
8324;DHT22;4199;50.802;6.772;2023-12-07T01:40:26;1.60;53.00
8324;DHT22;4199;50.802;6.772;2023-12-07T01:42:53;1.70;52.80
8324;DHT22;4199;50.802;6.772;2023-12-07T01:45:20;1.70;52.40
8324;DHT22;4199;50.802;6.772;2023-12-07T01:47:50;1.80;52.40
8324;DHT22;4199;50.802;6.772;2023-12-07T01:50:18;1.90;52.30
8324;DHT22;4199;50.802;6.772;2023-12-07T01:52:54;2.30;52.40
8324;DHT22;4199;50.802;6.772;2023-12-07T01:55:22;2.10;52.20
8324;DHT22;4199;50.802;6.772;2023-12-07T01:57:49;2.00;51.70
8324;DHT22;4199;50.802;6.772;2023-12-07T02:00:16;2.10;51.60
8324;DHT22;4199;50.802;6.772;2023-12-07T02:02:44;2.10;51.70
8324;DHT22;4199;50.802;6.772;2023-12-07T02:05:12;2.20;51.50
8324;DHT22;4199;50.802;6.772;2023-12-07T02:07:43;2.20;51.30
8324;DHT22;4199;50.802;6.772;2023-12-07T02:10:12;2.20;51.10
8324;DHT22;4199;50.802;6.772;2023-12-07T02:12:40;2.30;51.20
8324;DHT22;4199;50.802;6.772;2023-12-07T02:15:07;2.30;51.10
8324;DHT22;4199;50.802;6.772;2023-12-07T02:21:21;2.40;51.10
8324;DHT22;4199;50.802;6.772;2023-12-07T02:23:51;2.40;51.30
8324;DHT22;4199;50.802;6.772;2023-12-07T02:26:49;2.50;51.30
8324;DHT22;4199;50.802;6.772;2023-12-07T02:29:16;2.50;50.90
8324;DHT22;4199;50.802;6.772;2023-12-07T02:31:43;2.50;51.10
8324;DHT22;4199;50.802;6.772;2023-12-07T02:34:10;2.60;51.10
8324;DHT22;4199;50.802;6.772;2023-12-07T02:36:57;2.60;51.00
8324;DHT22;4199;50.802;6.772;2023-12-07T02:39:25;2.60;50.70
8324;DHT22;4199;50.802;6.772;2023-12-07T02:41:52;2.60;50.70
8324;DHT22;4199;50.802;6.772;2023-12-07T02:44:20;2.60;50.80
8324;DHT22;4199;50.802;6.772;2023-12-07T02:46:59;2.70;50.90
8324;DHT22;4199;50.802;6.772;2023-12-07T02:49:44;2.70;50.90
8324;DHT22;4199;50.802;6.772;2023-12-07T02:52:11;2.70;50.90
8324;DHT22;4199;50.802;6.772;2023-12-07T02:54:38;2.70;51.00
8324;DHT22;4199;50.802;6.772;2023-12-07T02:57:04;2.70;51.00
8324;DHT22;4199;50.802;6.772;2023-12-07T02:59:31;2.80;51.10
8324;DHT22;4199;50.802;6.772;2023-12-07T03:01:58;2.80;51.10
8324;DHT22;4199;50.802;6.772;2023-12-07T03:04:24;2.90;51.00
8324;DHT22;4199;50.802;6.772;2023-12-07T03:06:51;2.90;51.80
8324;DHT22;4199;50.802;6.772;2023-12-07T03:09:18;3.30;51.00
8324;DHT22;4199;50.802;6.772;2023-12-07T03:11:44;2.70;50.20
8324;DHT22;4199;50.802;6.772;2023-12-07T03:14:11;3.00;50.40
8324;DHT22;4199;50.802;6.772;2023-12-07T03:16:39;2.90;50.20
8324;DHT22;4199;50.802;6.772;2023-12-07T03:19:05;3.00;50.20
8324;DHT22;4199;50.802;6.772;2023-12-07T03:21:32;3.00;50.10
8324;DHT22;4199;50.802;6.772;2023-12-07T03:23:59;3.00;50.00
8324;DHT22;4199;50.802;6.772;2023-12-07T03:26:26;3.00;49.90
8324;DHT22;4199;50.802;6.772;2023-12-07T03:28:52;2.90;49.90
8324;DHT22;4199;50.802;6.772;2023-12-07T03:31:19;2.90;49.80
8324;DHT22;4199;50.802;6.772;2023-12-07T03:33:46;2.90;49.90
8324;DHT22;4199;50.802;6.772;2023-12-07T03:36:13;2.90;50.00
8324;DHT22;4199;50.802;6.772;2023-12-07T03:38:39;2.90;49.70
8324;DHT22;4199;50.802;6.772;2023-12-07T03:41:06;2.80;49.30
8324;DHT22;4199;50.802;6.772;2023-12-07T03:43:33;2.70;49.50
8324;DHT22;4199;50.802;6.772;2023-12-07T03:46:03;2.90;49.90
8324;DHT22;4199;50.802;6.772;2023-12-07T03:48:30;2.90;50.10
8324;DHT22;4199;50.802;6.772;2023-12-07T03:50:56;2.40;50.00
8324;DHT22;4199;50.802;6.772;2023-12-07T03:53:23;2.70;50.60
8324;DHT22;4199;50.802;6.772;2023-12-07T03:55:50;2.60;50.60
8324;DHT22;4199;50.802;6.772;2023-12-07T03:58:17;2.20;50.50
8324;DHT22;4199;50.802;6.772;2023-12-07T04:00:44;2.20;50.70
8324;DHT22;4199;50.802;6.772;2023-12-07T04:03:11;2.30;50.90
8324;DHT22;4199;50.802;6.772;2023-12-07T04:05:38;2.10;50.80
8324;DHT22;4199;50.802;6.772;2023-12-07T04:08:05;2.00;50.90
8324;DHT22;4199;50.802;6.772;2023-12-07T04:10:32;2.00;51.10
8324;DHT22;4199;50.802;6.772;2023-12-07T04:12:58;1.90;51.10
8324;DHT22;4199;50.802;6.772;2023-12-07T04:15:25;2.00;51.30
8324;DHT22;4199;50.802;6.772;2023-12-07T04:17:52;1.90;51.20
8324;DHT22;4199;50.802;6.772;2023-12-07T04:20:19;2.10;51.50
8324;DHT22;4199;50.802;6.772;2023-12-07T04:22:46;1.70;51.10
8324;DHT22;4199;50.802;6.772;2023-12-07T04:25:13;2.00;51.70
8324;DHT22;4199;50.802;6.772;2023-12-07T04:27:40;2.10;51.70
8324;DHT22;4199;50.802;6.772;2023-12-07T04:30:18;2.10;51.30
8324;DHT22;4199;50.802;6.772;2023-12-07T04:32:45;1.70;50.70
8324;DHT22;4199;50.802;6.772;2023-12-07T04:35:12;1.60;50.60
8324;DHT22;4199;50.802;6.772;2023-12-07T04:37:39;1.60;50.80
8324;DHT22;4199;50.802;6.772;2023-12-07T04:40:06;1.50;51.00
8324;DHT22;4199;50.802;6.772;2023-12-07T04:42:33;1.50;51.20
8324;DHT22;4199;50.802;6.772;2023-12-07T04:45:00;1.90;51.70
8324;DHT22;4199;50.802;6.772;2023-12-07T04:47:27;1.50;51.40
8324;DHT22;4199;50.802;6.772;2023-12-07T04:49:54;1.60;51.60
8324;DHT22;4199;50.802;6.772;2023-12-07T04:52:21;1.40;51.50
8324;DHT22;4199;50.802;6.772;2023-12-07T04:54:48;1.40;51.50
8324;DHT22;4199;50.802;6.772;2023-12-07T04:57:15;1.50;51.70
8324;DHT22;4199;50.802;6.772;2023-12-07T05:00:05;1.50;51.80
8324;DHT22;4199;50.802;6.772;2023-12-07T05:02:36;1.40;51.90
8324;DHT22;4199;50.802;6.772;2023-12-07T05:05:03;1.40;51.90
8324;DHT22;4199;50.802;6.772;2023-12-07T05:07:29;1.40;51.80
8324;DHT22;4199;50.802;6.772;2023-12-07T05:09:56;1.40;52.00
8324;DHT22;4199;50.802;6.772;2023-12-07T05:12:23;1.40;51.80
8324;DHT22;4199;50.802;6.772;2023-12-07T05:14:50;1.80;52.10
8324;DHT22;4199;50.802;6.772;2023-12-07T05:17:17;1.40;51.80
8324;DHT22;4199;50.802;6.772;2023-12-07T05:19:44;1.40;51.90
8324;DHT22;4199;50.802;6.772;2023-12-07T05:22:11;1.50;51.80
8324;DHT22;4199;50.802;6.772;2023-12-07T05:24:38;1.30;51.60
8324;DHT22;4199;50.802;6.772;2023-12-07T05:27:05;1.30;51.60
8324;DHT22;4199;50.802;6.772;2023-12-07T05:29:33;1.70;51.80
8324;DHT22;4199;50.802;6.772;2023-12-07T05:31:59;1.30;51.50
8324;DHT22;4199;50.802;6.772;2023-12-07T05:34:26;1.70;51.70
8324;DHT22;4199;50.802;6.772;2023-12-07T05:36:53;1.30;51.30
8324;DHT22;4199;50.802;6.772;2023-12-07T05:39:19;1.30;51.30
8324;DHT22;4199;50.802;6.772;2023-12-07T05:41:47;1.40;51.10
8324;DHT22;4199;50.802;6.772;2023-12-07T05:44:13;1.60;51.10
8324;DHT22;4199;50.802;6.772;2023-12-07T05:46:40;1.30;51.10
8324;DHT22;4199;50.802;6.772;2023-12-07T05:49:10;1.20;50.90
8324;DHT22;4199;50.802;6.772;2023-12-07T05:51:37;1.60;51.30
8324;DHT22;4199;50.802;6.772;2023-12-07T05:54:04;1.50;51.50
8324;DHT22;4199;50.802;6.772;2023-12-07T05:56:32;1.40;51.50
8324;DHT22;4199;50.802;6.772;2023-12-07T05:58:59;1.10;51.30
8324;DHT22;4199;50.802;6.772;2023-12-07T06:01:25;1.10;51.30
8324;DHT22;4199;50.802;6.772;2023-12-07T06:03:52;1.00;51.20
8324;DHT22;4199;50.802;6.772;2023-12-07T06:06:19;1.40;51.60
8324;DHT22;4199;50.802;6.772;2023-12-07T06:08:47;1.10;51.50
8324;DHT22;4199;50.802;6.772;2023-12-07T06:11:14;1.40;51.80
8324;DHT22;4199;50.802;6.772;2023-12-07T06:13:41;1.10;51.60
8324;DHT22;4199;50.802;6.772;2023-12-07T06:16:12;1.00;51.50
8324;DHT22;4199;50.802;6.772;2023-12-07T06:18:39;1.00;51.50
8324;DHT22;4199;50.802;6.772;2023-12-07T06:21:06;1.00;51.50
8324;DHT22;4199;50.802;6.772;2023-12-07T06:23:37;1.40;52.00
8324;DHT22;4199;50.802;6.772;2023-12-07T06:26:03;1.00;51.60
8324;DHT22;4199;50.802;6.772;2023-12-07T06:28:31;1.10;51.50
8324;DHT22;4199;50.802;6.772;2023-12-07T06:31:04;1.00;51.30
8324;DHT22;4199;50.802;6.772;2023-12-07T06:33:32;1.00;51.20
8324;DHT22;4199;50.802;6.772;2023-12-07T06:35:59;1.00;51.30
8324;DHT22;4199;50.802;6.772;2023-12-07T06:38:26;1.20;51.70
8324;DHT22;4199;50.802;6.772;2023-12-07T06:40:53;1.40;51.80
8324;DHT22;4199;50.802;6.772;2023-12-07T06:43:19;0.90;51.40
8324;DHT22;4199;50.802;6.772;2023-12-07T06:45:46;0.90;51.50
8324;DHT22;4199;50.802;6.772;2023-12-07T06:48:13;1.30;51.90
8324;DHT22;4199;50.802;6.772;2023-12-07T06:50:40;0.90;51.50
8324;DHT22;4199;50.802;6.772;2023-12-07T06:53:07;1.30;51.90
8324;DHT22;4199;50.802;6.772;2023-12-07T06:55:33;1.30;52.80
8324;DHT22;4199;50.802;6.772;2023-12-07T06:58:04;1.00;51.50
8324;DHT22;4199;50.802;6.772;2023-12-07T07:00:31;0.90;51.20
8324;DHT22;4199;50.802;6.772;2023-12-07T07:02:59;1.10;51.30
8324;DHT22;4199;50.802;6.772;2023-12-07T07:05:44;0.90;51.10
8324;DHT22;4199;50.802;6.772;2023-12-07T07:08:11;0.90;51.00
8324;DHT22;4199;50.802;6.772;2023-12-07T07:10:38;0.90;52.00
8324;DHT22;4199;50.802;6.772;2023-12-07T07:13:05;0.90;50.90
8324;DHT22;4199;50.802;6.772;2023-12-07T07:15:34;1.10;51.10
8324;DHT22;4199;50.802;6.772;2023-12-07T07:18:01;0.90;50.80
8324;DHT22;4199;50.802;6.772;2023-12-07T07:20:28;0.90;50.90
8324;DHT22;4199;50.802;6.772;2023-12-07T07:22:55;1.10;51.10
8324;DHT22;4199;50.802;6.772;2023-12-07T07:25:22;0.90;51.00
8324;DHT22;4199;50.802;6.772;2023-12-07T07:27:49;1.10;51.00
8324;DHT22;4199;50.802;6.772;2023-12-07T07:30:16;1.00;50.60
8324;DHT22;4199;50.802;6.772;2023-12-07T07:32:43;1.00;50.50
8324;DHT22;4199;50.802;6.772;2023-12-07T07:35:09;1.00;50.50
8324;DHT22;4199;50.802;6.772;2023-12-07T07:37:39;1.00;50.40
8324;DHT22;4199;50.802;6.772;2023-12-07T07:40:06;1.00;50.20
8324;DHT22;4199;50.802;6.772;2023-12-07T07:42:33;1.00;50.00
8324;DHT22;4199;50.802;6.772;2023-12-07T07:45:00;1.30;50.20
8324;DHT22;4199;50.802;6.772;2023-12-07T07:47:27;1.00;50.00
8324;DHT22;4199;50.802;6.772;2023-12-07T07:49:54;1.10;50.20
8324;DHT22;4199;50.802;6.772;2023-12-07T07:52:20;1.10;50.00
8324;DHT22;4199;50.802;6.772;2023-12-07T07:54:47;1.50;50.20
8324;DHT22;4199;50.802;6.772;2023-12-07T07:57:14;1.20;49.60
8324;DHT22;4199;50.802;6.772;2023-12-07T07:59:41;1.20;49.30
8324;DHT22;4199;50.802;6.772;2023-12-07T08:02:08;1.20;49.10
8324;DHT22;4199;50.802;6.772;2023-12-07T08:04:35;1.20;48.80
8324;DHT22;4199;50.802;6.772;2023-12-07T08:07:01;1.30;48.80
8324;DHT22;4199;50.802;6.772;2023-12-07T08:09:28;1.30;49.40
8324;DHT22;4199;50.802;6.772;2023-12-07T08:11:55;1.50;48.20
8324;DHT22;4199;50.802;6.772;2023-12-07T08:14:22;1.40;48.00
8324;DHT22;4199;50.802;6.772;2023-12-07T08:16:48;1.50;47.90
8324;DHT22;4199;50.802;6.772;2023-12-07T08:19:15;1.90;48.00
8324;DHT22;4199;50.802;6.772;2023-12-07T08:21:42;1.50;47.30
8324;DHT22;4199;50.802;6.772;2023-12-07T08:24:09;1.90;47.40
8324;DHT22;4199;50.802;6.772;2023-12-07T08:26:35;1.50;47.10
8324;DHT22;4199;50.802;6.772;2023-12-07T08:29:02;1.70;46.90
8324;DHT22;4199;50.802;6.772;2023-12-07T08:31:30;1.60;46.80
8324;DHT22;4199;50.802;6.772;2023-12-07T08:33:57;1.70;46.70
8324;DHT22;4199;50.802;6.772;2023-12-07T08:36:24;1.70;46.70
8324;DHT22;4199;50.802;6.772;2023-12-07T08:38:51;1.70;47.80
8324;DHT22;4199;50.802;6.772;2023-12-07T08:41:18;1.80;46.60
8324;DHT22;4199;50.802;6.772;2023-12-07T08:43:45;2.30;46.70
8324;DHT22;4199;50.802;6.772;2023-12-07T08:46:11;2.00;46.00
8324;DHT22;4199;50.802;6.772;2023-12-07T08:48:38;2.10;45.90
8324;DHT22;4199;50.802;6.772;2023-12-07T08:51:09;2.20;45.70
8324;DHT22;4199;50.802;6.772;2023-12-07T08:53:35;2.30;45.20
8324;DHT22;4199;50.802;6.772;2023-12-07T08:56:03;2.40;45.00
8324;DHT22;4199;50.802;6.772;2023-12-07T08:58:29;2.50;44.80
8324;DHT22;4199;50.802;6.772;2023-12-07T09:00:56;2.50;44.60
8324;DHT22;4199;50.802;6.772;2023-12-07T09:03:23;2.50;44.30
8324;DHT22;4199;50.802;6.772;2023-12-07T09:05:59;2.50;44.40
8324;DHT22;4199;50.802;6.772;2023-12-07T09:08:26;2.50;44.30
8324;DHT22;4199;50.802;6.772;2023-12-07T09:10:52;2.40;44.60
8324;DHT22;4199;50.802;6.772;2023-12-07T09:13:19;2.30;44.80
8324;DHT22;4199;50.802;6.772;2023-12-07T09:15:46;2.30;45.20
8324;DHT22;4199;50.802;6.772;2023-12-07T09:18:14;2.40;45.30
8324;DHT22;4199;50.802;6.772;2023-12-07T09:20:41;2.40;45.20
8324;DHT22;4199;50.802;6.772;2023-12-07T09:23:31;2.40;45.30
8324;DHT22;4199;50.802;6.772;2023-12-07T09:25:58;2.90;45.90
8324;DHT22;4199;50.802;6.772;2023-12-07T09:28:25;2.60;45.10
8324;DHT22;4199;50.802;6.772;2023-12-07T09:30:51;2.90;45.10
8324;DHT22;4199;50.802;6.772;2023-12-07T09:33:18;2.70;44.60
8324;DHT22;4199;50.802;6.772;2023-12-07T09:35:47;2.70;44.70
8324;DHT22;4199;50.802;6.772;2023-12-07T09:38:15;2.80;44.50
8324;DHT22;4199;50.802;6.772;2023-12-07T09:40:43;2.80;44.20
8324;DHT22;4199;50.802;6.772;2023-12-07T09:43:11;2.90;43.80
8324;DHT22;4199;50.802;6.772;2023-12-07T09:45:39;3.00;43.90
8324;DHT22;4199;50.802;6.772;2023-12-07T09:48:07;3.30;44.30
8324;DHT22;4199;50.802;6.772;2023-12-07T09:50:35;3.10;43.50
8324;DHT22;4199;50.802;6.772;2023-12-07T09:53:02;3.10;43.30
8324;DHT22;4199;50.802;6.772;2023-12-07T09:55:35;3.60;43.60
8324;DHT22;4199;50.802;6.772;2023-12-07T09:58:05;3.20;42.70
8324;DHT22;4199;50.802;6.772;2023-12-07T10:00:34;3.30;42.70
8324;DHT22;4199;50.802;6.772;2023-12-07T10:03:01;3.30;42.50
8324;DHT22;4199;50.802;6.772;2023-12-07T10:05:29;3.30;42.50
8324;DHT22;4199;50.802;6.772;2023-12-07T10:07:56;3.40;42.20
8324;DHT22;4199;50.802;6.772;2023-12-07T10:10:23;3.40;42.00
8324;DHT22;4199;50.802;6.772;2023-12-07T10:12:53;3.50;42.00
8324;DHT22;4199;50.802;6.772;2023-12-07T10:15:21;3.50;42.20
8324;DHT22;4199;50.802;6.772;2023-12-07T10:17:53;3.60;42.20
8324;DHT22;4199;50.802;6.772;2023-12-07T10:20:22;3.60;41.90
8324;DHT22;4199;50.802;6.772;2023-12-07T10:25:42;3.70;40.70
8324;DHT22;4199;50.802;6.772;2023-12-07T10:28:10;3.80;40.60
8324;DHT22;4199;50.802;6.772;2023-12-07T10:30:42;3.80;40.20
8324;DHT22;4199;50.802;6.772;2023-12-07T10:33:10;3.80;41.10
8324;DHT22;4199;50.802;6.772;2023-12-07T10:35:43;4.30;40.90
8324;DHT22;4199;50.802;6.772;2023-12-07T10:38:10;3.90;40.20
8324;DHT22;4199;50.802;6.772;2023-12-07T10:40:39;4.00;40.40
8324;DHT22;4199;50.802;6.772;2023-12-07T10:43:07;4.00;40.00
8324;DHT22;4199;50.802;6.772;2023-12-07T10:45:35;4.10;39.60
8324;DHT22;4199;50.802;6.772;2023-12-07T10:48:08;4.20;40.60
8324;DHT22;4199;50.802;6.772;2023-12-07T10:50:37;4.20;39.40
8324;DHT22;4199;50.802;6.772;2023-12-07T10:53:10;4.30;39.30
8324;DHT22;4199;50.802;6.772;2023-12-07T10:55:44;4.30;39.30
8324;DHT22;4199;50.802;6.772;2023-12-07T10:58:13;4.30;39.00
8324;DHT22;4199;50.802;6.772;2023-12-07T11:00:42;4.30;39.10
8324;DHT22;4199;50.802;6.772;2023-12-07T11:03:17;4.40;38.40
8324;DHT22;4199;50.802;6.772;2023-12-07T11:05:48;4.40;37.70
8324;DHT22;4199;50.802;6.772;2023-12-07T11:11:27;4.40;37.70
8324;DHT22;4199;50.802;6.772;2023-12-07T11:14:05;4.80;37.80
8324;DHT22;4199;50.802;6.772;2023-12-07T11:16:35;4.50;37.50
8324;DHT22;4199;50.802;6.772;2023-12-07T11:19:03;4.90;36.90
8324;DHT22;4199;50.802;6.772;2023-12-07T11:21:34;4.60;36.00
8324;DHT22;4199;50.802;6.772;2023-12-07T11:24:01;4.60;36.00
8324;DHT22;4199;50.802;6.772;2023-12-07T11:26:33;4.70;36.40
8324;DHT22;4199;50.802;6.772;2023-12-07T11:29:01;4.70;36.20
8324;DHT22;4199;50.802;6.772;2023-12-07T11:31:28;4.80;36.00
8324;DHT22;4199;50.802;6.772;2023-12-07T11:33:55;4.90;35.50
8324;DHT22;4199;50.802;6.772;2023-12-07T11:36:22;4.90;35.50
8324;DHT22;4199;50.802;6.772;2023-12-07T11:41:50;5.00;34.80
8324;DHT22;4199;50.802;6.772;2023-12-07T11:44:17;5.40;35.20
8324;DHT22;4199;50.802;6.772;2023-12-07T11:46:44;4.90;34.50
8324;DHT22;4199;50.802;6.772;2023-12-07T11:49:11;5.00;34.30
8324;DHT22;4199;50.802;6.772;2023-12-07T11:51:54;5.10;34.20
8324;DHT22;4199;50.802;6.772;2023-12-07T11:54:22;5.20;34.60
8324;DHT22;4199;50.802;6.772;2023-12-07T11:56:55;5.20;34.20
8324;DHT22;4199;50.802;6.772;2023-12-07T11:59:23;5.60;33.70
8324;DHT22;4199;50.802;6.772;2023-12-07T12:02:00;5.40;33.70
8324;DHT22;4199;50.802;6.772;2023-12-07T12:04:29;5.40;33.00
8324;DHT22;4199;50.802;6.772;2023-12-07T12:06:56;5.40;32.40
8324;DHT22;4199;50.802;6.772;2023-12-07T12:09:26;5.40;32.70
8324;DHT22;4199;50.802;6.772;2023-12-07T12:12:17;5.40;32.90
8324;DHT22;4199;50.802;6.772;2023-12-07T12:14:44;5.40;33.00
8324;DHT22;4199;50.802;6.772;2023-12-07T12:17:15;5.50;33.10
8324;DHT22;4199;50.802;6.772;2023-12-07T12:19:41;5.50;32.50
8324;DHT22;4199;50.802;6.772;2023-12-07T12:22:08;5.60;33.10
8324;DHT22;4199;50.802;6.772;2023-12-07T12:24:35;5.60;32.30
8324;DHT22;4199;50.802;6.772;2023-12-07T12:27:04;5.60;32.30
8324;DHT22;4199;50.802;6.772;2023-12-07T12:29:46;5.60;32.40
8324;DHT22;4199;50.802;6.772;2023-12-07T12:32:13;5.60;32.30
8324;DHT22;4199;50.802;6.772;2023-12-07T12:34:40;5.50;32.20
8324;DHT22;4199;50.802;6.772;2023-12-07T12:37:08;5.50;32.40
8324;DHT22;4199;50.802;6.772;2023-12-07T12:39:35;5.50;32.90
8324;DHT22;4199;50.802;6.772;2023-12-07T12:42:02;5.50;33.10
8324;DHT22;4199;50.802;6.772;2023-12-07T12:44:30;5.50;33.30
8324;DHT22;4199;50.802;6.772;2023-12-07T12:47:07;5.40;33.30
8324;DHT22;4199;50.802;6.772;2023-12-07T12:49:39;5.40;33.40
8324;DHT22;4199;50.802;6.772;2023-12-07T12:52:10;5.30;32.70
8324;DHT22;4199;50.802;6.772;2023-12-07T12:54:37;5.20;33.10
8324;DHT22;4199;50.802;6.772;2023-12-07T12:57:06;5.20;33.50
8324;DHT22;4199;50.802;6.772;2023-12-07T12:59:34;5.10;33.90
8324;DHT22;4199;50.802;6.772;2023-12-07T13:02:02;5.10;34.60
8324;DHT22;4199;50.802;6.772;2023-12-07T13:04:32;5.20;34.60
8324;DHT22;4199;50.802;6.772;2023-12-07T13:07:03;5.50;34.70
8324;DHT22;4199;50.802;6.772;2023-12-07T13:09:30;5.10;34.00
8324;DHT22;4199;50.802;6.772;2023-12-07T13:11:58;5.20;33.50
8324;DHT22;4199;50.802;6.772;2023-12-07T13:14:30;5.20;33.90
8324;DHT22;4199;50.802;6.772;2023-12-07T13:16:58;5.20;34.40
8324;DHT22;4199;50.802;6.772;2023-12-07T13:19:25;5.30;34.70
8324;DHT22;4199;50.802;6.772;2023-12-07T13:21:52;5.40;34.40
8324;DHT22;4199;50.802;6.772;2023-12-07T13:24:18;5.80;34.00
8324;DHT22;4199;50.802;6.772;2023-12-07T13:26:45;5.60;33.10
8324;DHT22;4199;50.802;6.772;2023-12-07T13:29:14;5.70;32.40
8324;DHT22;4199;50.802;6.772;2023-12-07T13:31:54;5.80;32.50
8324;DHT22;4199;50.802;6.772;2023-12-07T13:34:20;5.90;32.00
8324;DHT22;4199;50.802;6.772;2023-12-07T13:36:50;6.00;31.50
8324;DHT22;4199;50.802;6.772;2023-12-07T13:39:17;6.10;31.70
8324;DHT22;4199;50.802;6.772;2023-12-07T13:41:57;6.10;31.40
8324;DHT22;4199;50.802;6.772;2023-12-07T13:44:24;6.10;30.90
8324;DHT22;4199;50.802;6.772;2023-12-07T13:46:54;6.00;32.20
8324;DHT22;4199;50.802;6.772;2023-12-07T13:49:22;5.90;31.40
8324;DHT22;4199;50.802;6.772;2023-12-07T13:52:00;5.80;32.00
8324;DHT22;4199;50.802;6.772;2023-12-07T13:54:34;5.60;32.30
8324;DHT22;4199;50.802;6.772;2023-12-07T13:57:20;5.40;32.30
8324;DHT22;4199;50.802;6.772;2023-12-07T13:59:47;5.30;33.00
8324;DHT22;4199;50.802;6.772;2023-12-07T14:02:14;5.30;33.40
8324;DHT22;4199;50.802;6.772;2023-12-07T14:04:41;5.20;33.30
8324;DHT22;4199;50.802;6.772;2023-12-07T14:07:17;5.00;33.40
8324;DHT22;4199;50.802;6.772;2023-12-07T14:09:45;4.90;33.70
8324;DHT22;4199;50.802;6.772;2023-12-07T14:12:23;4.80;34.40
8324;DHT22;4199;50.802;6.772;2023-12-07T14:14:50;4.70;34.60
8324;DHT22;4199;50.802;6.772;2023-12-07T14:17:17;4.60;34.70
8324;DHT22;4199;50.802;6.772;2023-12-07T14:19:46;4.50;35.50
8324;DHT22;4199;50.802;6.772;2023-12-07T14:22:16;4.50;35.90
8324;DHT22;4199;50.802;6.772;2023-12-07T14:24:43;4.40;36.00
8324;DHT22;4199;50.802;6.772;2023-12-07T14:27:10;4.40;36.00
8324;DHT22;4199;50.802;6.772;2023-12-07T14:29:36;4.40;36.50
8324;DHT22;4199;50.802;6.772;2023-12-07T14:32:22;4.30;36.60
8324;DHT22;4199;50.802;6.772;2023-12-07T14:34:49;4.20;36.60
8324;DHT22;4199;50.802;6.772;2023-12-07T14:37:16;4.20;36.60
8324;DHT22;4199;50.802;6.772;2023-12-07T14:39:43;4.20;37.00
8324;DHT22;4199;50.802;6.772;2023-12-07T14:42:10;4.10;36.90
8324;DHT22;4199;50.802;6.772;2023-12-07T14:44:37;4.00;37.30
8324;DHT22;4199;50.802;6.772;2023-12-07T14:47:04;4.00;37.60
8324;DHT22;4199;50.802;6.772;2023-12-07T14:49:31;3.90;38.00
8324;DHT22;4199;50.802;6.772;2023-12-07T14:51:58;3.80;38.20
8324;DHT22;4199;50.802;6.772;2023-12-07T14:54:26;3.70;38.40
8324;DHT22;4199;50.802;6.772;2023-12-07T14:56:57;3.60;38.70
8324;DHT22;4199;50.802;6.772;2023-12-07T14:59:25;3.50;38.80
8324;DHT22;4199;50.802;6.772;2023-12-07T15:01:51;3.50;39.20
8324;DHT22;4199;50.802;6.772;2023-12-07T15:04:18;3.40;39.40
8324;DHT22;4199;50.802;6.772;2023-12-07T15:06:59;3.30;39.80
8324;DHT22;4199;50.802;6.772;2023-12-07T15:09:27;3.30;40.40
8324;DHT22;4199;50.802;6.772;2023-12-07T15:11:54;3.20;40.80
8324;DHT22;4199;50.802;6.772;2023-12-07T15:14:22;3.10;41.10
8324;DHT22;4199;50.802;6.772;2023-12-07T15:17:03;3.00;41.30
8324;DHT22;4199;50.802;6.772;2023-12-07T15:19:30;3.00;41.50
8324;DHT22;4199;50.802;6.772;2023-12-07T15:21:59;2.90;41.80
8324;DHT22;4199;50.802;6.772;2023-12-07T15:24:25;2.80;41.90
8324;DHT22;4199;50.802;6.772;2023-12-07T15:27:01;2.80;42.30
8324;DHT22;4199;50.802;6.772;2023-12-07T15:29:28;2.80;42.40
8324;DHT22;4199;50.802;6.772;2023-12-07T15:31:55;2.90;42.80
8324;DHT22;4199;50.802;6.772;2023-12-07T15:34:22;2.60;42.70
8324;DHT22;4199;50.802;6.772;2023-12-07T15:37:03;2.60;43.00
8324;DHT22;4199;50.802;6.772;2023-12-07T15:39:30;2.60;43.20
8324;DHT22;4199;50.802;6.772;2023-12-07T15:42:16;2.60;43.30
8324;DHT22;4199;50.802;6.772;2023-12-07T15:44:43;2.60;43.20
8324;DHT22;4199;50.802;6.772;2023-12-07T15:47:09;2.60;43.10
8324;DHT22;4199;50.802;6.772;2023-12-07T15:49:37;2.60;43.00
8324;DHT22;4199;50.802;6.772;2023-12-07T15:52:04;3.10;43.30
8324;DHT22;4199;50.802;6.772;2023-12-07T15:54:31;2.70;44.00
8324;DHT22;4199;50.802;6.772;2023-12-07T15:57:06;2.70;42.70
8324;DHT22;4199;50.802;6.772;2023-12-07T15:59:35;2.60;42.90
8324;DHT22;4199;50.802;6.772;2023-12-07T16:02:09;2.70;42.80
8324;DHT22;4199;50.802;6.772;2023-12-07T16:04:38;3.10;43.30
8324;DHT22;4199;50.802;6.772;2023-12-07T16:07:06;3.10;43.20
8324;DHT22;4199;50.802;6.772;2023-12-07T16:09:36;2.70;42.90
8324;DHT22;4199;50.802;6.772;2023-12-07T16:12:05;2.70;43.10
8324;DHT22;4199;50.802;6.772;2023-12-07T16:14:33;2.70;43.00
8324;DHT22;4199;50.802;6.772;2023-12-07T16:17:00;2.90;43.20
8324;DHT22;4199;50.802;6.772;2023-12-07T16:19:28;2.60;42.80
8324;DHT22;4199;50.802;6.772;2023-12-07T16:21:55;3.00;43.30
8324;DHT22;4199;50.802;6.772;2023-12-07T16:24:22;2.60;43.10
8324;DHT22;4199;50.802;6.772;2023-12-07T16:26:49;2.60;43.00
8324;DHT22;4199;50.802;6.772;2023-12-07T16:29:17;2.60;43.10
8324;DHT22;4199;50.802;6.772;2023-12-07T16:31:44;2.60;43.30
8324;DHT22;4199;50.802;6.772;2023-12-07T16:34:12;2.60;42.90
8324;DHT22;4199;50.802;6.772;2023-12-07T16:36:39;2.60;43.00
8324;DHT22;4199;50.802;6.772;2023-12-07T16:39:06;2.60;42.90